Time;durP1;ratioP1;P1;durP2;ratioP2;P2;SDS_P1;SDS_P2;PMS_P1;PMS_P2;Temp;Humidity;BMP_temperature;BMP_pressure;BME280_temperature;BME280_humidity;BME280_pressure;Samples;Min_cycle;Max_cycle;Signal;HPM_P1;HPM_P2
2022/10/28 00:01:12;;;;;;;5.57;4.03;;;;;;;20.43;67.00;100966.47;4957277;28;20177;-64
2022/10/28 00:03:41;;;;;;;7.20;4.43;;;;;;;20.44;67.11;100968.09;4943597;29;20984;-64
2022/10/28 00:06:11;;;;;;;5.97;4.27;;;;;;;20.43;66.92;100962.75;4919733;29;20415;-64
2022/10/28 00:08:37;;;;;;;7.77;4.37;;;;;;;20.44;66.92;100973.84;4919329;29;20471;-64
2022/10/28 00:11:16;;;;;;;5.73;4.23;;;;;;;20.43;67.04;100975.06;4952632;29;20466;-64
2022/10/28 00:13:42;;;;;;;6.57;4.63;;;;;;;20.43;66.97;100975.06;4919688;29;20202;-64
2022/10/28 00:16:18;;;;;;;6.50;4.30;;;;;;;20.43;66.89;100975.06;4946930;28;20453;-64
2022/10/28 00:18:44;;;;;;;5.93;4.20;;;;;;;20.43;66.92;100975.06;4962871;28;20424;-65
2022/10/28 00:21:17;;;;;;;5.63;4.17;;;;;;;20.43;67.15;100971.34;4975335;28;20425;-65
2022/10/28 00:23:43;;;;;;;5.70;4.00;;;;;;;20.42;67.24;100958.22;4943074;28;20171;-64
2022/10/28 00:26:08;;;;;;;5.53;4.03;;;;;;;20.43;67.15;100965.63;4941948;28;20461;-64
2022/10/28 00:28:33;;;;;;;11.93;5.03;;;;;;;20.44;67.08;100965.25;4975193;28;20183;-64
2022/10/28 00:31:05;;;;;;;7.17;4.13;;;;;;;20.44;67.62;100967.25;4975313;28;20522;-64
2022/10/28 00:33:31;;;;;;;6.33;4.10;;;;;;;20.43;67.03;100968.47;4922381;29;20192;-64
2022/10/28 00:35:56;;;;;;;5.33;3.90;;;;;;;20.42;67.24;100969.69;4951913;28;20530;-65
2022/10/28 00:38:21;;;;;;;6.10;4.23;;;;;;;20.41;67.42;100965.97;4974559;28;20182;-64
2022/10/28 00:40:47;;;;;;;6.47;3.83;;;;;;;20.41;66.67;100971.72;4941309;28;20636;-64
2022/10/28 00:43:13;;;;;;;5.20;3.90;;;;;;;20.39;67.41;100959.81;4941308;28;20225;-64
2022/10/28 00:45:38;;;;;;;6.23;3.90;;;;;;;20.40;67.16;100967.19;4974303;28;20534;-65
2022/10/28 00:48:04;;;;;;;5.43;3.73;;;;;;;20.42;66.84;100966.81;4974305;28;20627;-64
2022/10/28 00:50:29;;;;;;;6.70;4.17;;;;;;;20.43;67.22;100963.59;4957408;28;20649;-64
2022/10/28 00:52:58;;;;;;;5.73;3.97;;;;;;;20.41;67.24;100965.97;4974884;28;20193;-64
2022/10/28 00:55:23;;;;;;;5.07;3.77;;;;;;;20.41;67.39;100963.13;4941805;28;20191;-64
2022/10/28 00:57:48;;;;;;;6.20;4.20;;;;;;;20.39;67.12;100962.69;4957705;28;20469;-65
2022/10/28 01:00:33;;;;;;;5.90;4.00;;;;;;;20.40;67.33;100955.72;4957535;28;20166;-64
2022/10/28 01:02:58;;;;;;;5.60;3.73;;;;;;;20.39;67.33;100956.09;4953041;28;20241;-64
2022/10/28 01:05:29;;;;;;;5.40;4.10;;;;;;;20.41;67.35;100951.66;4941194;28;20445;-64
2022/10/28 01:07:59;;;;;;;5.20;3.70;;;;;;;20.42;67.44;100950.44;4938056;29;20321;-64
2022/10/28 01:10:46;;;;;;;5.73;3.70;;;;;;;20.40;67.11;100954.88;4954157;29;20426;-64
2022/10/28 01:13:37;;;;;;;5.97;3.93;;;;;;;20.39;67.52;100962.69;4953925;29;20411;-65
2022/10/28 01:16:14;;;;;;;4.80;4.20;;;;;;;20.39;67.39;100964.69;4956546;28;20546;-64
2022/10/28 01:18:58;;;;;;;5.53;4.30;;;;;;;20.39;67.03;100965.53;4954732;28;20418;-64
2022/10/28 01:21:41;;;;;;;5.17;3.60;;;;;;;20.39;67.40;100973.31;4953951;29;20419;-65
2022/10/28 01:24:37;;;;;;;5.33;3.63;;;;;;;20.39;67.21;100961.84;4953772;29;20410;-64
2022/10/28 01:27:17;;;;;;;6.77;4.60;;;;;;;20.39;67.19;100956.94;4953855;28;20465;-64
2022/10/28 01:30:07;;;;;;;6.23;4.03;;;;;;;20.37;67.08;100952.78;4953578;29;20513;-64
2022/10/28 01:33:01;;;;;;;5.33;3.83;;;;;;;20.39;67.11;100959.81;4952471;28;20489;-65
2022/10/28 01:35:32;;;;;;;5.40;3.97;;;;;;;20.38;67.41;100954.44;4974129;28;20450;-64
2022/10/28 01:38:18;;;;;;;4.47;3.50;;;;;;;20.37;67.14;100955.66;4972801;28;20889;-64
2022/10/28 01:40:54;;;;;;;4.80;3.40;;;;;;;20.39;67.50;100961.84;4972878;28;20444;-65
2022/10/28 01:43:22;;;;;;;5.60;4.07;;;;;;;20.35;68.12;100961.75;4957643;28;20422;-64
2022/10/28 01:45:56;;;;;;;6.57;4.30;;;;;;;20.38;67.33;100952.41;4972728;28;20497;-64
2022/10/28 01:48:44;;;;;;;4.60;3.30;;;;;;;20.36;67.35;100945.41;4973742;28;20500;-64
2022/10/28 01:51:12;;;;;;;5.80;3.97;;;;;;;20.38;67.10;100955.28;4972248;28;20442;-64
2022/10/28 01:53:40;;;;;;;5.43;4.17;;;;;;;20.36;67.09;100957.69;4972435;28;21002;-64
2022/10/28 01:56:08;;;;;;;3.90;3.23;;;;;;;20.38;67.53;100961.03;4972576;28;20469;-64
2022/10/28 01:58:34;;;;;;;5.80;3.70;;;;;;;20.37;67.20;100958.53;4956340;28;20434;-64
2022/10/28 02:01:00;;;;;;;6.70;3.83;;;;;;;20.37;67.15;100965.06;4972091;28;20422;-64
2022/10/28 02:03:26;;;;;;;4.93;3.37;;;;;;;20.36;67.43;100963.41;4937411;28;20187;-64
2022/10/28 02:05:55;;;;;;;6.70;4.23;;;;;;;20.36;67.39;100957.69;4937149;29;20437;-64
2022/10/28 02:08:28;;;;;;;6.27;3.70;;;;;;;20.38;67.33;100961.03;4937161;29;20489;-64
2022/10/28 02:11:02;;;;;;;5.43;3.90;;;;;;;20.34;67.73;100942.91;4938971;29;20430;-65
2022/10/28 02:13:54;;;;;;;5.40;3.43;;;;;;;20.34;67.38;100945.78;4936324;29;20425;-64
2022/10/28 02:16:47;;;;;;;4.90;3.53;;;;;;;20.35;67.48;100944.56;4934280;29;20478;-65
2022/10/28 02:19:21;;;;;;;5.10;3.20;;;;;;;20.35;67.32;100938.81;4934959;28;20526;-64
2022/10/28 02:21:54;;;;;;;4.70;3.60;;;;;;;20.35;67.22;100935.94;4968910;28;20445;-65
2022/10/28 02:24:27;;;;;;;4.97;3.47;;;;;;;20.35;67.22;100921.63;4971185;28;20418;-65
2022/10/28 02:27:01;;;;;;;4.70;3.47;;;;;;;20.32;67.30;100904.34;4971785;28;20824;-64
2022/10/28 02:29:36;;;;;;;4.53;3.30;;;;;;;20.35;67.60;100910.16;4971839;28;20430;-64
2022/10/28 02:32:04;;;;;;;4.40;3.03;;;;;;;20.33;67.54;100921.19;4948709;29;20433;-64
2022/10/28 02:34:32;;;;;;;5.50;3.60;;;;;;;20.34;67.55;100917.09;4936304;29;20446;-64
2022/10/28 02:36:57;;;;;;;4.93;3.07;;;;;;;20.34;67.59;100913.38;4917334;29;20436;-64
2022/10/28 02:39:30;;;;;;;4.07;3.17;;;;;;;20.36;67.64;100914.66;4932751;29;20430;-64
2022/10/28 02:42:07;;;;;;;4.90;3.27;;;;;;;20.33;67.42;100898.22;4933495;29;20195;-64
2022/10/28 02:44:40;;;;;;;5.73;3.43;;;;;;;20.34;67.27;100905.63;4901665;29;20431;-64
2022/10/28 02:47:08;;;;;;;5.67;3.50;;;;;;;20.32;67.43;100910.88;4933283;29;20412;-64
2022/10/28 02:49:34;;;;;;;4.97;3.43;;;;;;;20.34;67.56;100924.84;4917215;29;20951;-64
2022/10/28 02:52:02;;;;;;;5.37;3.90;;;;;;;20.32;67.83;100915.81;4949050;29;20415;-64
2022/10/28 02:54:27;;;;;;;6.37;4.00;;;;;;;20.31;66.98;100914.97;4948741;29;20183;-64
2022/10/28 02:56:57;;;;;;;4.10;3.03;;;;;;;20.31;67.29;100923.56;4934200;29;20519;-64
2022/10/28 02:59:23;;;;;;;4.40;3.27;;;;;;;20.31;67.28;100912.09;4934091;29;20247;-65
2022/10/28 03:01:48;;;;;;;5.70;3.47;;;;;;;20.34;67.45;100902.75;4938617;29;20807;-64
2022/10/28 03:04:14;;;;;;;4.50;3.50;;;;;;;20.31;67.13;100892.03;4953147;28;20199;-64
2022/10/28 03:06:39;;;;;;;5.43;3.70;;;;;;;20.31;67.75;100894.91;4953447;28;20195;-64
2022/10/28 03:09:05;;;;;;;4.83;3.20;;;;;;;20.30;67.30;100896.09;4951261;29;20321;-64
2022/10/28 03:11:30;;;;;;;5.70;4.07;;;;;;;20.32;67.72;100904.34;4954323;28;20344;-64
2022/10/28 03:13:56;;;;;;;4.63;3.37;;;;;;;20.31;67.57;100897.75;4951884;29;20555;-64
2022/10/28 03:16:21;;;;;;;3.90;3.03;;;;;;;20.32;67.23;100902.28;4953158;28;20195;-64
2022/10/28 03:18:46;;;;;;;5.13;3.43;;;;;;;20.33;67.50;100898.22;4983950;28;20183;-64
2022/10/28 03:21:12;;;;;;;4.33;3.33;;;;;;;20.30;67.72;100890.38;4967937;28;20175;-64
2022/10/28 03:23:37;;;;;;;4.13;3.10;;;;;;;20.32;67.54;100893.69;4951490;29;20178;-64
2022/10/28 03:26:03;;;;;;;4.73;3.03;;;;;;;20.30;67.55;100906.75;4953147;28;20167;-64
2022/10/28 03:28:28;;;;;;;4.87;3.70;;;;;;;20.32;67.26;100910.88;4967889;28;20230;-64
2022/10/28 03:30:53;;;;;;;4.13;3.00;;;;;;;20.31;67.33;100894.91;4951445;29;20179;-65
2022/10/28 03:33:19;;;;;;;4.70;3.47;;;;;;;20.32;67.28;100882.22;4950760;29;20198;-65
2022/10/28 03:35:44;;;;;;;4.80;3.33;;;;;;;20.31;67.73;100876.88;4934510;29;20206;-64
2022/10/28 03:38:10;;;;;;;4.20;3.40;;;;;;;20.29;67.56;100851.44;4952606;28;20167;-64
2022/10/28 03:40:35;;;;;;;4.20;2.93;;;;;;;20.30;67.61;100827.28;4951764;28;20552;-64
2022/10/28 03:43:01;;;;;;;4.43;3.40;;;;;;;20.31;67.54;100822.41;4947311;29;20195;-64
2022/10/28 03:45:26;;;;;;;4.03;2.93;;;;;;;20.32;67.60;100826.91;4932621;29;20267;-64
2022/10/28 03:47:52;;;;;;;3.80;2.97;;;;;;;20.31;67.30;100840.41;4932182;29;20280;-64
2022/10/28 03:50:17;;;;;;;4.43;3.40;;;;;;;20.31;67.48;100863.34;4933861;29;20641;-64
2022/10/28 03:52:45;;;;;;;4.23;3.13;;;;;;;20.30;67.40;100890.38;4936150;29;20179;-64
2022/10/28 03:55:11;;;;;;;5.20;3.60;;;;;;;20.33;67.12;100894.53;4951942;29;20663;-64
2022/10/28 03:57:36;;;;;;;4.33;3.00;;;;;;;20.33;67.13;100892.50;4936216;29;20451;-64
2022/10/28 04:00:03;;;;;;;4.00;3.10;;;;;;;20.32;67.46;100879.34;4937319;29;20184;-64
2022/10/28 04:02:28;;;;;;;3.70;2.90;;;;;;;20.30;67.44;100864.56;4948649;29;20187;-64
2022/10/28 04:04:54;;;;;;;5.70;3.20;;;;;;;20.30;67.61;100858.84;4956414;28;21009;-64
2022/10/28 04:07:19;;;;;;;4.13;3.10;;;;;;;20.32;67.21;100864.19;4951120;28;20230;-64
2022/10/28 04:09:44;;;;;;;4.23;2.80;;;;;;;20.30;67.35;100858.00;4923061;29;20183;-64
2022/10/28 04:12:10;;;;;;;4.13;3.20;;;;;;;20.30;67.69;100855.97;4977834;28;20183;-64
2022/10/28 04:14:35;;;;;;;4.13;3.20;;;;;;;20.29;67.78;100851.44;4990280;28;20159;-64
2022/10/28 04:17:01;;;;;;;3.40;2.67;;;;;;;20.28;67.43;100852.66;4960158;28;20506;-64
2022/10/28 04:19:26;;;;;;;4.17;2.87;;;;;;;20.32;67.39;100847.00;4974923;28;20166;-64
2022/10/28 04:21:52;;;;;;;3.90;3.10;;;;;;;20.34;67.31;100858.91;4958314;28;20163;-64
2022/10/28 04:24:17;;;;;;;4.03;2.90;;;;;;;20.30;67.24;100855.97;4975357;28;20182;-64
2022/10/28 04:26:43;;;;;;;4.33;3.13;;;;;;;20.30;67.26;100861.69;4926278;28;20176;-64
2022/10/28 04:29:08;;;;;;;4.67;3.20;;;;;;;20.30;67.40;100853.09;4957619;28;20221;-65
2022/10/28 04:31:33;;;;;;;4.20;3.20;;;;;;;20.33;67.31;100854.38;4957783;28;20194;-64
2022/10/28 04:33:59;;;;;;;3.40;2.80;;;;;;;20.31;67.43;100857.63;4975204;28;20174;-64
2022/10/28 04:36:24;;;;;;;4.10;3.30;;;;;;;20.32;67.57;100865.00;4957633;28;20198;-64
2022/10/28 04:38:50;;;;;;;4.23;3.00;;;;;;;20.31;67.35;100851.06;4973802;28;20186;-64
2022/10/28 04:41:16;;;;;;;4.03;2.90;;;;;;;20.32;67.51;100861.31;4941865;28;20182;-64
2022/10/28 04:43:41;;;;;;;3.50;2.73;;;;;;;20.30;67.74;100841.63;4941665;28;20892;-64
2022/10/28 04:46:07;;;;;;;3.60;2.63;;;;;;;20.29;67.33;100833.41;4957563;28;20181;-64
2022/10/28 04:48:32;;;;;;;3.70;2.60;;;;;;;20.28;67.45;100854.69;4957669;28;20174;-64
2022/10/28 04:50:58;;;;;;;3.70;3.00;;;;;;;20.30;67.52;100873.16;4941636;28;20175;-64
2022/10/28 04:53:23;;;;;;;4.07;3.10;;;;;;;20.31;67.31;100879.75;4957420;28;20245;-64
2022/10/28 04:55:49;;;;;;;3.97;2.77;;;;;;;20.33;67.41;100865.84;4941581;28;20201;-64
2022/10/28 04:58:14;;;;;;;3.90;3.03;;;;;;;20.30;67.33;100863.72;4974935;28;20167;-64
2022/10/28 05:00:40;;;;;;;3.33;2.30;;;;;;;20.33;67.48;100877.31;4957442;28;20209;-64
2022/10/28 05:03:05;;;;;;;3.80;2.90;;;;;;;20.32;67.23;100847.00;4974255;28;20178;-64
2022/10/28 05:05:31;;;;;;;4.00;3.10;;;;;;;20.30;67.35;100864.56;4957128;28;20198;-64
2022/10/28 05:07:56;;;;;;;6.17;2.70;;;;;;;20.32;67.31;100878.53;4941240;28;20230;-64
2022/10/28 05:10:22;;;;;;;4.07;2.83;;;;;;;20.31;67.42;100914.97;4957042;28;20230;-64
2022/10/28 05:12:47;;;;;;;3.50;2.63;;;;;;;20.32;67.60;100913.75;4959876;28;20170;-64
2022/10/28 05:15:13;;;;;;;4.43;2.70;;;;;;;20.31;67.64;100879.75;4972417;28;20292;-64
2022/10/28 05:17:42;;;;;;;3.83;2.63;;;;;;;20.32;67.29;100879.34;4956027;28;20510;-65
2022/10/28 05:20:08;;;;;;;3.60;2.50;;;;;;;20.31;67.37;100891.22;4924433;28;20217;-64
2022/10/28 05:22:33;;;;;;;4.90;3.50;;;;;;;20.31;67.51;100871.97;4923935;28;20525;-64
2022/10/28 05:24:59;;;;;;;4.17;3.00;;;;;;;20.31;67.19;100869.09;4973242;28;20171;-64
2022/10/28 05:27:24;;;;;;;4.20;2.83;;;;;;;20.30;67.63;100858.84;4973286;28;20249;-64
2022/10/28 05:29:50;;;;;;;4.30;2.87;;;;;;;20.30;67.08;100855.13;4973997;28;20731;-64
2022/10/28 05:32:15;;;;;;;4.20;3.00;;;;;;;20.30;67.03;100844.50;4956876;28;20190;-64
2022/10/28 05:34:40;;;;;;;4.53;3.10;;;;;;;20.30;67.42;100837.91;4956647;28;20637;-64
2022/10/28 05:37:06;;;;;;;4.60;2.80;;;;;;;20.28;67.29;100838.31;4956720;28;20906;-64
2022/10/28 05:39:31;;;;;;;3.70;2.70;;;;;;;20.31;67.47;100840.41;4956635;28;20182;-64
2022/10/28 05:41:57;;;;;;;3.20;2.50;;;;;;;20.32;67.30;100844.94;4940602;28;20205;-64
2022/10/28 05:44:22;;;;;;;3.70;2.83;;;;;;;20.31;67.32;100856.81;4940703;28;20255;-64
2022/10/28 05:46:47;;;;;;;4.47;3.10;;;;;;;20.30;67.17;100863.72;4973895;28;20171;-64
2022/10/28 05:49:19;;;;;;;4.73;3.20;;;;;;;20.33;67.45;100871.59;4943018;28;20225;-64
2022/10/28 05:51:47;;;;;;;3.50;2.57;;;;;;;20.29;67.32;100865.78;4953372;29;20193;-64
2022/10/28 05:54:12;;;;;;;3.70;2.73;;;;;;;20.31;66.99;100869.09;4937770;29;20414;-64
2022/10/28 05:56:38;;;;;;;4.03;2.70;;;;;;;20.32;67.19;100861.31;4954298;29;20462;-64
2022/10/28 05:59:03;;;;;;;4.80;3.20;;;;;;;20.30;67.31;100861.69;4937225;29;20190;-64
2022/10/28 06:01:28;;;;;;;3.40;2.60;;;;;;;20.30;67.56;100860.84;4924257;28;20193;-64
2022/10/28 06:03:54;;;;;;;4.33;2.60;;;;;;;20.32;67.28;100872.78;4973294;28;20202;-65
2022/10/28 06:06:19;;;;;;;3.70;2.70;;;;;;;20.31;67.44;100863.34;4956300;28;20178;-64
2022/10/28 06:08:45;;;;;;;4.20;3.20;;;;;;;20.30;67.59;100853.09;4940156;28;20222;-64
2022/10/28 06:11:10;;;;;;;3.80;2.83;;;;;;;20.31;67.44;100853.94;4956638;28;20182;-64
2022/10/28 06:13:36;;;;;;;4.43;3.00;;;;;;;20.30;67.16;100855.97;4956936;28;20251;-64
2022/10/28 06:16:01;;;;;;;3.90;2.37;;;;;;;20.30;67.33;100858.84;4939795;28;20210;-64
2022/10/28 06:18:27;;;;;;;4.20;2.80;;;;;;;20.32;67.35;100858.47;4939774;28;20181;-65
2022/10/28 06:20:56;;;;;;;4.33;2.80;;;;;;;20.32;67.38;100850.66;4970778;28;20217;-65
2022/10/28 06:23:22;;;;;;;2.90;2.40;;;;;;;20.31;67.13;100849.00;4955692;28;20265;-64
2022/10/28 06:25:47;;;;;;;3.20;2.00;;;;;;;20.32;67.43;100855.59;4988068;28;20476;-64
2022/10/28 06:28:13;;;;;;;5.07;3.17;;;;;;;20.30;67.33;100861.69;4955782;28;20174;-64
2022/10/28 06:30:38;;;;;;;4.00;2.70;;;;;;;20.33;67.42;100849.47;4973052;28;20155;-64
2022/10/28 06:33:04;;;;;;;3.93;2.83;;;;;;;20.33;67.31;100860.13;4958717;28;20559;-64
2022/10/28 06:35:29;;;;;;;3.87;3.00;;;;;;;20.32;67.20;100878.53;4939512;28;20639;-64
2022/10/28 06:37:57;;;;;;;3.80;3.03;;;;;;;20.32;67.53;100882.22;4972392;28;20505;-64
2022/10/28 06:40:26;;;;;;;3.37;2.60;;;;;;;20.32;67.41;100887.94;4959239;28;20195;-64
2022/10/28 06:43:02;;;;;;;3.70;2.97;;;;;;;20.31;67.31;100886.28;4939307;28;20430;-64
2022/10/28 06:45:28;;;;;;;4.03;2.50;;;;;;;20.31;67.59;100899.81;4952389;29;20414;-64
2022/10/28 06:47:56;;;;;;;4.13;2.80;;;;;;;20.31;67.30;100902.69;4954169;28;21295;-64
2022/10/28 06:50:21;;;;;;;3.53;2.67;;;;;;;20.32;67.20;100892.88;4964305;28;20434;-64
2022/10/28 06:52:46;;;;;;;3.10;2.40;;;;;;;20.34;67.23;100896.19;4954290;28;20427;-64
2022/10/28 06:55:12;;;;;;;3.00;2.30;;;;;;;20.33;67.62;100889.63;4935962;29;20325;-64
2022/10/28 06:57:37;;;;;;;3.13;2.50;;;;;;;20.33;67.02;100892.50;4935925;29;20186;-64
2022/10/28 07:00:03;;;;;;;4.70;2.50;;;;;;;20.33;67.50;100878.16;4953261;29;20222;-64
2022/10/28 07:02:29;;;;;;;3.57;2.90;;;;;;;20.33;67.54;100877.31;4925225;29;20199;-64
2022/10/28 07:04:54;;;;;;;3.70;2.57;;;;;;;20.32;67.14;100873.59;4948744;28;20458;-64
2022/10/28 07:07:20;;;;;;;2.83;2.17;;;;;;;20.34;67.16;100885.53;4951725;29;20245;-64
2022/10/28 07:09:45;;;;;;;3.87;2.60;;;;;;;20.32;67.28;100881.41;4935692;29;20781;-64
2022/10/28 07:12:11;;;;;;;3.43;2.67;;;;;;;20.33;67.31;100886.75;4953100;29;20169;-64
2022/10/28 07:14:36;;;;;;;2.83;2.10;;;;;;;20.32;67.14;100896.56;4953913;28;20197;-65
2022/10/28 07:17:02;;;;;;;3.83;2.60;;;;;;;20.34;67.47;100905.63;4943318;29;20230;-64
2022/10/28 07:19:27;;;;;;;3.43;2.70;;;;;;;20.33;67.02;100898.22;4943127;29;20603;-64
2022/10/28 07:21:53;;;;;;;3.17;2.27;;;;;;;20.32;67.18;100899.41;4966396;28;20266;-64
2022/10/28 07:24:18;;;;;;;5.17;2.50;;;;;;;20.35;67.34;100909.31;4939334;28;20202;-64
2022/10/28 07:26:45;;;;;;;3.43;2.60;;;;;;;20.37;67.29;100904.84;4937256;29;20229;-64
2022/10/28 07:29:11;;;;;;;4.03;2.70;;;;;;;20.35;67.25;100904.41;4945161;28;20217;-64
2022/10/28 07:31:36;;;;;;;3.70;2.63;;;;;;;20.37;67.36;100909.78;4957918;28;20433;-64
2022/10/28 07:34:02;;;;;;;3.30;2.43;;;;;;;20.33;67.25;100915.44;4947294;28;20694;-64
2022/10/28 07:36:27;;;;;;;3.20;2.20;;;;;;;20.35;67.64;100923.63;4953198;28;20682;-65
2022/10/28 07:38:53;;;;;;;3.77;2.60;;;;;;;20.34;67.36;100931.44;4956730;28;20674;-64
2022/10/28 07:41:19;;;;;;;3.20;2.20;;;;;;;20.37;67.24;100929.84;4950769;28;20190;-64
2022/10/28 07:43:45;;;;;;;3.40;2.33;;;;;;;20.36;67.11;100925.31;4949022;28;20281;-65
2022/10/28 07:46:10;;;;;;;3.30;2.50;;;;;;;20.37;67.01;100930.66;4928467;29;20450;-64
2022/10/28 07:48:36;;;;;;;5.17;2.70;;;;;;;20.35;66.83;100950.28;4951243;29;20195;-64
2022/10/28 07:51:03;;;;;;;4.20;2.57;;;;;;;20.37;67.08;100945.00;4920360;29;20198;-64
2022/10/28 07:53:28;;;;;;;3.23;2.40;;;;;;;20.37;67.14;100945.00;4945785;28;20194;-64
2022/10/28 07:55:57;;;;;;;3.80;2.93;;;;;;;20.38;67.34;100940.09;4921846;29;20524;-64
2022/10/28 07:58:23;;;;;;;3.93;2.53;;;;;;;20.36;67.27;100933.94;4911231;28;21121;-64
2022/10/28 08:00:48;;;;;;;3.07;2.23;;;;;;;20.38;67.03;100929.47;4947096;28;20436;-64
2022/10/28 08:03:13;;;;;;;4.23;3.10;;;;;;;20.37;67.31;100927.78;4948238;28;20189;-64
2022/10/28 08:05:39;;;;;;;4.40;2.50;;;;;;;20.34;67.27;100910.50;4954916;28;20203;-65
2022/10/28 08:08:04;;;;;;;3.30;2.37;;;;;;;20.35;67.05;100906.44;4953020;28;20223;-64
2022/10/28 08:10:30;;;;;;;3.20;2.33;;;;;;;20.36;66.89;100911.78;4944898;28;20240;-64
2022/10/28 08:12:56;;;;;;;4.63;2.33;;;;;;;20.36;67.21;100913.84;4944446;28;20646;-64
2022/10/28 08:15:22;;;;;;;3.33;2.53;;;;;;;20.38;67.16;100911.44;4928716;28;20210;-64
2022/10/28 08:17:54;;;;;;;3.30;2.30;;;;;;;20.38;66.81;100911.44;4955491;28;20441;-64
2022/10/28 08:20:20;;;;;;;2.87;2.17;;;;;;;20.37;67.17;100907.72;4943483;28;20433;-64
2022/10/28 08:22:45;;;;;;;3.23;2.33;;;;;;;20.36;67.41;100914.66;4926957;28;20927;-64
2022/10/28 08:25:11;;;;;;;2.60;1.90;;;;;;;20.36;67.17;100910.97;4944506;28;20191;-65
2022/10/28 08:27:36;;;;;;;2.77;1.73;;;;;;;20.38;67.20;100922.91;4932728;28;20195;-65
2022/10/28 08:30:02;;;;;;;3.47;2.30;;;;;;;20.41;67.40;100928.69;4953444;28;20737;-65
2022/10/28 08:32:28;;;;;;;3.17;2.03;;;;;;;20.38;67.11;100925.75;4935268;28;20183;-64
2022/10/28 08:34:53;;;;;;;3.17;2.40;;;;;;;20.37;67.03;100922.06;4958532;28;20497;-65
2022/10/28 08:37:19;;;;;;;3.53;2.60;;;;;;;20.38;67.30;100926.59;4955784;28;20179;-65
2022/10/28 08:39:44;;;;;;;3.83;2.63;;;;;;;20.40;67.26;100920.47;4956371;28;20191;-65
2022/10/28 08:42:32;;;;;;;2.77;2.20;;;;;;;20.39;67.11;100925.38;4943446;28;20576;-65
2022/10/28 08:45:20;;;;;;;3.43;2.53;;;;;;;20.41;66.97;100913.53;4955904;28;20948;-64
2022/10/28 08:47:45;;;;;;;4.10;2.03;;;;;;;20.40;66.97;100914.72;4947068;28;20430;-64
2022/10/28 08:50:16;;;;;;;2.77;2.07;;;;;;;20.40;66.83;100914.72;4958017;28;20787;-65
2022/10/28 08:53:14;;;;;;;2.90;2.10;;;;;;;20.38;67.08;100909.41;4942049;28;20210;-65
2022/10/28 08:55:41;;;;;;;3.10;2.10;;;;;;;20.40;67.06;100923.34;4948512;28;20481;-65
2022/10/28 08:58:18;;;;;;;3.37;2.07;;;;;;;20.39;67.04;100922.53;4925893;28;21412;-65
2022/10/28 09:00:46;;;;;;;3.57;2.50;;;;;;;20.40;67.25;100912.69;4938525;28;20421;-64
2022/10/28 09:03:11;;;;;;;3.53;2.50;;;;;;;20.41;66.91;100902.88;4942569;28;20427;-65
2022/10/28 09:05:37;;;;;;;3.23;2.40;;;;;;;20.41;67.40;100907.81;4956190;28;20469;-64
2022/10/28 09:08:03;;;;;;;3.40;2.40;;;;;;;20.41;66.98;100913.53;4943369;29;20718;-65
2022/10/28 09:10:34;;;;;;;3.50;2.70;;;;;;;20.42;66.80;100906.59;4938968;29;20449;-64
2022/10/28 09:13:10;;;;;;;3.10;2.33;;;;;;;20.41;66.99;100907.81;4943598;28;20183;-64
2022/10/28 09:15:58;;;;;;;2.70;2.40;;;;;;;20.41;66.87;100913.53;4956710;28;20470;-65
2022/10/28 09:18:37;;;;;;;3.73;2.70;;;;;;;20.42;67.18;100910.28;4935935;28;20515;-65
2022/10/28 09:21:04;;;;;;;2.80;2.10;;;;;;;20.42;66.94;100910.28;4953699;28;21558;-64
2022/10/28 09:23:30;;;;;;;3.23;2.40;;;;;;;20.40;67.21;100918.44;4928589;29;20431;-64
2022/10/28 09:26:03;;;;;;;3.50;2.47;;;;;;;20.45;67.00;100929.59;4954032;28;20986;-64
2022/10/28 09:29:03;;;;;;;5.40;3.13;;;;;;;20.44;66.94;100925.09;4940064;29;20463;-65
2022/10/28 09:31:39;;;;;;;2.70;2.00;;;;;;;20.42;67.05;100924.63;4938444;28;20417;-64
2022/10/28 09:34:33;;;;;;;3.07;2.20;;;;;;;20.40;67.09;100920.47;4922978;29;20428;-65
2022/10/28 09:37:17;;;;;;;2.97;2.20;;;;;;;20.44;66.78;100929.97;4939412;28;21515;-64
2022/10/28 09:39:44;;;;;;;3.17;2.17;;;;;;;20.43;66.86;100931.19;4938358;29;20450;-65
2022/10/28 09:42:17;;;;;;;3.20;2.27;;;;;;;20.44;66.96;100930.81;4935529;29;20442;-64
2022/10/28 09:44:47;;;;;;;2.80;2.00;;;;;;;20.45;66.88;100926.75;4937404;29;20435;-65
2022/10/28 09:47:20;;;;;;;2.53;1.83;;;;;;;20.47;67.06;100912.84;4935960;28;20424;-64
2022/10/28 09:49:46;;;;;;;3.00;2.00;;;;;;;20.47;67.03;100907.09;4938496;29;20435;-64
2022/10/28 09:52:18;;;;;;;2.97;2.00;;;;;;;20.45;67.06;100911.56;4919740;29;20982;-65
2022/10/28 09:54:50;;;;;;;3.60;2.17;;;;;;;20.46;67.35;100904.63;4938157;29;20186;-65
2022/10/28 09:57:15;;;;;;;2.80;2.03;;;;;;;20.45;66.80;100915.25;4936246;29;20548;-65
2022/10/28 09:59:41;;;;;;;3.07;2.40;;;;;;;20.45;66.88;100921.00;4935619;29;20493;-64
2022/10/28 10:02:23;;;;;;;3.20;2.17;;;;;;;20.46;67.03;100925.53;4942155;29;20198;-64
2022/10/28 10:04:49;;;;;;;2.87;2.07;;;;;;;20.45;66.80;100931.63;4936995;29;20238;-64
2022/10/28 10:07:20;;;;;;;2.73;1.80;;;;;;;20.44;66.91;100933.69;4941791;28;20467;-64
2022/10/28 10:09:46;;;;;;;2.60;2.00;;;;;;;20.46;66.82;100921.84;4943649;29;20187;-64
2022/10/28 10:12:12;;;;;;;3.00;1.83;;;;;;;20.46;66.72;100919.78;4946495;29;20752;-64
2022/10/28 10:14:39;;;;;;;3.37;2.20;;;;;;;20.47;66.76;100924.31;4936066;29;20190;-64
2022/10/28 10:17:09;;;;;;;3.30;2.20;;;;;;;20.44;67.18;100922.22;4923432;29;20725;-64
2022/10/28 10:20:02;;;;;;;3.30;2.40;;;;;;;20.47;67.02;100930.03;4934757;29;20419;-64
2022/10/28 10:22:38;;;;;;;3.07;2.20;;;;;;;20.47;66.92;100932.09;4943783;29;20408;-64
2022/10/28 10:25:19;;;;;;;3.50;2.50;;;;;;;20.48;66.70;100925.16;4936089;28;20442;-64
2022/10/28 10:28:04;;;;;;;2.60;1.80;;;;;;;20.46;66.81;100925.53;4945791;28;20419;-64
2022/10/28 10:30:45;;;;;;;2.70;2.07;;;;;;;20.47;67.00;100918.56;4919852;29;21006;-64
2022/10/28 10:33:44;;;;;;;3.17;1.93;;;;;;;20.46;66.82;100916.91;4926560;29;20497;-64
2022/10/28 10:36:09;;;;;;;2.90;2.10;;;;;;;20.46;66.46;100910.38;4946439;28;20522;-64
2022/10/28 10:38:34;;;;;;;3.50;2.10;;;;;;;20.47;66.74;100909.97;4935823;28;20430;-64
2022/10/28 10:41:00;;;;;;;2.60;1.90;;;;;;;20.47;66.89;100904.22;4938734;29;20279;-64
2022/10/28 10:43:32;;;;;;;3.30;2.10;;;;;;;20.50;66.85;100889.13;4918916;29;20266;-65
2022/10/28 10:45:59;;;;;;;3.50;2.60;;;;;;;20.48;66.66;100890.72;4943727;29;20187;-64
2022/10/28 10:48:24;;;;;;;7.20;2.23;;;;;;;20.46;66.91;100896.84;4934512;29;20431;-64
2022/10/28 10:50:49;;;;;;;3.20;2.40;;;;;;;20.49;66.87;100898.13;4919190;29;20423;-64
2022/10/28 10:53:19;;;;;;;2.80;2.00;;;;;;;20.53;66.76;100894.09;4927953;29;20195;-64
2022/10/28 10:55:48;;;;;;;2.80;2.20;;;;;;;20.52;66.93;100892.44;4951473;28;20203;-64
2022/10/28 10:58:22;;;;;;;2.80;1.83;;;;;;;20.50;66.73;100897.75;4935713;28;20907;-64
2022/10/28 11:00:49;;;;;;;2.80;2.20;;;;;;;20.49;66.74;100904.69;4934515;28;20443;-64
2022/10/28 11:03:23;;;;;;;3.30;2.17;;;;;;;20.48;66.87;100891.56;4943105;29;20921;-64
2022/10/28 11:05:57;;;;;;;2.70;1.90;;;;;;;20.50;66.82;100897.75;4949559;28;20440;-64
2022/10/28 11:08:34;;;;;;;3.07;2.30;;;;;;;20.52;66.64;100892.44;4928341;29;20467;-64
2022/10/28 11:11:07;;;;;;;2.57;1.93;;;;;;;20.52;66.84;100891.63;4943196;29;20422;-64
2022/10/28 11:13:33;;;;;;;3.30;2.23;;;;;;;20.54;66.80;100895.78;4932432;29;20427;-65
2022/10/28 11:15:59;;;;;;;3.40;2.00;;;;;;;20.51;66.74;100895.69;4942549;29;21213;-65
2022/10/28 11:18:25;;;;;;;2.80;1.70;;;;;;;20.54;66.93;100892.06;4933963;28;20195;-65
2022/10/28 11:21:02;;;;;;;2.67;1.83;;;;;;;20.54;66.78;100883.47;4935810;28;20443;-65
2022/10/28 11:23:49;;;;;;;2.87;1.93;;;;;;;20.54;66.68;100883.47;4937106;28;20730;-64
2022/10/28 11:26:15;;;;;;;3.00;2.30;;;;;;;20.54;66.38;100895.78;4935299;29;20411;-65
2022/10/28 11:28:46;;;;;;;3.40;2.20;;;;;;;20.57;66.20;100892.13;4934419;29;20475;-65
2022/10/28 11:31:33;;;;;;;3.67;1.90;;;;;;;20.56;66.80;100899.09;4934496;29;20282;-65
2022/10/28 11:34:34;;;;;;;3.07;2.10;;;;;;;20.57;66.59;100897.06;4949469;28;20474;-65